sensor_id;sensor_type;location;lat;lon;timestamp;temperature;humidity
10788;DHT22;5446;50.826;4.380;2023-03-11T00:00:41;1.40;99.90
10788;DHT22;5446;50.826;4.380;2023-03-11T00:03:08;1.40;99.90
10788;DHT22;5446;50.826;4.380;2023-03-11T00:05:36;1.40;99.90
10788;DHT22;5446;50.826;4.380;2023-03-11T00:08:03;1.40;99.90
10788;DHT22;5446;50.826;4.380;2023-03-11T00:10:34;1.30;99.90
10788;DHT22;5446;50.826;4.380;2023-03-11T00:13:01;1.30;99.90
10788;DHT22;5446;50.826;4.380;2023-03-11T00:15:28;1.20;99.90
10788;DHT22;5446;50.826;4.380;2023-03-11T00:17:55;1.20;99.90
10788;DHT22;5446;50.826;4.380;2023-03-11T00:20:27;1.10;99.90
10788;DHT22;5446;50.826;4.380;2023-03-11T00:22:53;1.10;99.90
10788;DHT22;5446;50.826;4.380;2023-03-11T00:25:21;1.10;99.90
10788;DHT22;5446;50.826;4.380;2023-03-11T00:27:47;1.10;99.90
10788;DHT22;5446;50.826;4.380;2023-03-11T00:30:15;1.10;99.90
10788;DHT22;5446;50.826;4.380;2023-03-11T00:32:42;1.10;99.90
10788;DHT22;5446;50.826;4.380;2023-03-11T00:35:12;1.10;99.90
10788;DHT22;5446;50.826;4.380;2023-03-11T00:37:38;1.20;99.90
10788;DHT22;5446;50.826;4.380;2023-03-11T00:40:05;1.20;99.90
10788;DHT22;5446;50.826;4.380;2023-03-11T00:42:35;1.20;99.90
10788;DHT22;5446;50.826;4.380;2023-03-11T00:45:01;1.20;99.90
10788;DHT22;5446;50.826;4.380;2023-03-11T00:47:27;1.10;99.90
10788;DHT22;5446;50.826;4.380;2023-03-11T00:49:53;1.10;99.90
10788;DHT22;5446;50.826;4.380;2023-03-11T00:52:19;1.10;99.90
10788;DHT22;5446;50.826;4.380;2023-03-11T00:54:44;1.10;99.90
10788;DHT22;5446;50.826;4.380;2023-03-11T00:57:10;1.10;99.90
10788;DHT22;5446;50.826;4.380;2023-03-11T00:59:36;1.10;99.90
10788;DHT22;5446;50.826;4.380;2023-03-11T01:02:02;1.00;99.90
10788;DHT22;5446;50.826;4.380;2023-03-11T01:04:28;1.00;99.90
10788;DHT22;5446;50.826;4.380;2023-03-11T01:06:54;1.00;99.90
10788;DHT22;5446;50.826;4.380;2023-03-11T01:09:20;1.00;99.90
10788;DHT22;5446;50.826;4.380;2023-03-11T01:11:46;1.00;99.90
10788;DHT22;5446;50.826;4.380;2023-03-11T01:14:12;1.00;99.90
10788;DHT22;5446;50.826;4.380;2023-03-11T01:16:38;0.90;99.90
10788;DHT22;5446;50.826;4.380;2023-03-11T01:19:04;0.90;99.90
10788;DHT22;5446;50.826;4.380;2023-03-11T01:21:29;0.90;99.90
10788;DHT22;5446;50.826;4.380;2023-03-11T01:23:55;0.90;99.90
10788;DHT22;5446;50.826;4.380;2023-03-11T01:26:21;0.80;99.90
10788;DHT22;5446;50.826;4.380;2023-03-11T01:28:47;0.80;99.90
10788;DHT22;5446;50.826;4.380;2023-03-11T01:31:13;0.80;99.90
10788;DHT22;5446;50.826;4.380;2023-03-11T01:33:39;0.80;99.90
10788;DHT22;5446;50.826;4.380;2023-03-11T01:36:05;0.80;99.90
10788;DHT22;5446;50.826;4.380;2023-03-11T01:38:31;0.80;99.90
10788;DHT22;5446;50.826;4.380;2023-03-11T01:40:57;0.90;99.90
10788;DHT22;5446;50.826;4.380;2023-03-11T01:43:40;0.90;99.90
10788;DHT22;5446;50.826;4.380;2023-03-11T01:48:34;0.90;99.90
10788;DHT22;5446;50.826;4.380;2023-03-11T01:51:00;0.90;99.90
10788;DHT22;5446;50.826;4.380;2023-03-11T01:53:26;0.90;99.90
10788;DHT22;5446;50.826;4.380;2023-03-11T01:55:52;1.00;99.90
10788;DHT22;5446;50.826;4.380;2023-03-11T01:58:24;0.90;99.90
10788;DHT22;5446;50.826;4.380;2023-03-11T02:00:51;1.00;99.90
10788;DHT22;5446;50.826;4.380;2023-03-11T02:03:23;1.00;99.90
10788;DHT22;5446;50.826;4.380;2023-03-11T02:05:52;1.00;99.90
10788;DHT22;5446;50.826;4.380;2023-03-11T02:08:18;1.10;99.90
10788;DHT22;5446;50.826;4.380;2023-03-11T02:10:44;1.10;99.90
10788;DHT22;5446;50.826;4.380;2023-03-11T02:13:11;1.10;99.90
10788;DHT22;5446;50.826;4.380;2023-03-11T02:15:37;1.10;99.90
10788;DHT22;5446;50.826;4.380;2023-03-11T02:18:05;1.10;99.90
10788;DHT22;5446;50.826;4.380;2023-03-11T02:20:51;1.10;99.90
10788;DHT22;5446;50.826;4.380;2023-03-11T02:23:22;1.10;99.90
10788;DHT22;5446;50.826;4.380;2023-03-11T02:26:01;1.00;99.90
10788;DHT22;5446;50.826;4.380;2023-03-11T02:28:29;1.10;99.90
10788;DHT22;5446;50.826;4.380;2023-03-11T02:30:56;1.10;99.90
10788;DHT22;5446;50.826;4.380;2023-03-11T02:33:25;1.10;99.90
10788;DHT22;5446;50.826;4.380;2023-03-11T02:35:53;1.10;99.90
10788;DHT22;5446;50.826;4.380;2023-03-11T02:38:19;1.10;99.90
10788;DHT22;5446;50.826;4.380;2023-03-11T02:43:16;1.10;99.90
10788;DHT22;5446;50.826;4.380;2023-03-11T02:45:44;1.20;99.90
10788;DHT22;5446;50.826;4.380;2023-03-11T02:48:11;1.10;99.90
10788;DHT22;5446;50.826;4.380;2023-03-11T02:50:39;1.10;99.90
10788;DHT22;5446;50.826;4.380;2023-03-11T02:53:05;1.00;99.90
10788;DHT22;5446;50.826;4.380;2023-03-11T02:55:32;1.00;99.90
10788;DHT22;5446;50.826;4.380;2023-03-11T02:57:58;1.00;99.90
10788;DHT22;5446;50.826;4.380;2023-03-11T03:00:24;1.00;99.90
10788;DHT22;5446;50.826;4.380;2023-03-11T03:02:50;1.00;99.90
10788;DHT22;5446;50.826;4.380;2023-03-11T03:05:17;1.00;99.90
10788;DHT22;5446;50.826;4.380;2023-03-11T03:07:49;1.10;99.90
10788;DHT22;5446;50.826;4.380;2023-03-11T03:10:16;1.20;99.90
10788;DHT22;5446;50.826;4.380;2023-03-11T03:12:42;1.20;99.90
10788;DHT22;5446;50.826;4.380;2023-03-11T03:15:09;1.30;99.90
10788;DHT22;5446;50.826;4.380;2023-03-11T03:17:35;1.20;99.90
10788;DHT22;5446;50.826;4.380;2023-03-11T03:20:01;1.30;99.90
10788;DHT22;5446;50.826;4.380;2023-03-11T03:22:30;1.30;99.90
10788;DHT22;5446;50.826;4.380;2023-03-11T03:24:56;1.30;99.90
10788;DHT22;5446;50.826;4.380;2023-03-11T03:27:22;1.40;99.90
10788;DHT22;5446;50.826;4.380;2023-03-11T03:29:47;1.40;99.90
10788;DHT22;5446;50.826;4.380;2023-03-11T03:32:13;1.40;99.90
10788;DHT22;5446;50.826;4.380;2023-03-11T03:34:39;1.40;99.90
10788;DHT22;5446;50.826;4.380;2023-03-11T03:37:05;1.40;99.90
10788;DHT22;5446;50.826;4.380;2023-03-11T03:39:31;1.40;99.90
10788;DHT22;5446;50.826;4.380;2023-03-11T03:41:58;1.40;99.90
10788;DHT22;5446;50.826;4.380;2023-03-11T03:44:24;1.40;99.90
10788;DHT22;5446;50.826;4.380;2023-03-11T03:46:50;1.50;99.90
10788;DHT22;5446;50.826;4.380;2023-03-11T03:49:16;1.50;99.90
10788;DHT22;5446;50.826;4.380;2023-03-11T03:51:42;1.40;99.90
10788;DHT22;5446;50.826;4.380;2023-03-11T03:54:07;1.40;99.90
10788;DHT22;5446;50.826;4.380;2023-03-11T03:56:33;1.40;99.90
10788;DHT22;5446;50.826;4.380;2023-03-11T03:58:59;1.40;99.90
10788;DHT22;5446;50.826;4.380;2023-03-11T04:01:24;1.40;99.90
10788;DHT22;5446;50.826;4.380;2023-03-11T04:03:50;1.50;99.90
10788;DHT22;5446;50.826;4.380;2023-03-11T04:06:17;1.40;99.90
10788;DHT22;5446;50.826;4.380;2023-03-11T04:08:43;1.30;99.90
10788;DHT22;5446;50.826;4.380;2023-03-11T04:11:09;1.30;99.90
10788;DHT22;5446;50.826;4.380;2023-03-11T04:13:35;1.30;99.90
10788;DHT22;5446;50.826;4.380;2023-03-11T04:16:05;1.20;99.90
10788;DHT22;5446;50.826;4.380;2023-03-11T04:18:32;1.20;99.90
10788;DHT22;5446;50.826;4.380;2023-03-11T04:20:58;1.10;99.90
10788;DHT22;5446;50.826;4.380;2023-03-11T04:23:24;1.10;99.90
10788;DHT22;5446;50.826;4.380;2023-03-11T04:25:49;1.10;99.90
10788;DHT22;5446;50.826;4.380;2023-03-11T04:28:15;1.10;99.90
10788;DHT22;5446;50.826;4.380;2023-03-11T04:30:41;1.10;99.90
10788;DHT22;5446;50.826;4.380;2023-03-11T04:33:07;1.00;99.90
10788;DHT22;5446;50.826;4.380;2023-03-11T04:35:32;1.00;99.90
10788;DHT22;5446;50.826;4.380;2023-03-11T04:37:59;1.00;99.90
10788;DHT22;5446;50.826;4.380;2023-03-11T04:40:25;1.00;99.90
10788;DHT22;5446;50.826;4.380;2023-03-11T04:42:52;1.00;99.90
10788;DHT22;5446;50.826;4.380;2023-03-11T04:45:18;0.90;99.90
10788;DHT22;5446;50.826;4.380;2023-03-11T04:47:48;0.90;99.90
10788;DHT22;5446;50.826;4.380;2023-03-11T04:50:14;0.90;99.90
10788;DHT22;5446;50.826;4.380;2023-03-11T04:52:41;0.90;99.90
10788;DHT22;5446;50.826;4.380;2023-03-11T04:55:07;0.90;99.90
10788;DHT22;5446;50.826;4.380;2023-03-11T04:57:33;0.80;99.90
10788;DHT22;5446;50.826;4.380;2023-03-11T04:59:59;0.80;99.90
10788;DHT22;5446;50.826;4.380;2023-03-11T05:02:25;0.70;99.90
10788;DHT22;5446;50.826;4.380;2023-03-11T05:04:51;0.70;99.90
10788;DHT22;5446;50.826;4.380;2023-03-11T05:07:17;0.70;99.90
10788;DHT22;5446;50.826;4.380;2023-03-11T05:09:42;0.70;99.90
10788;DHT22;5446;50.826;4.380;2023-03-11T05:12:11;0.70;99.90
10788;DHT22;5446;50.826;4.380;2023-03-11T05:14:36;0.70;99.90
10788;DHT22;5446;50.826;4.380;2023-03-11T05:17:02;0.70;99.90
10788;DHT22;5446;50.826;4.380;2023-03-11T05:19:28;0.70;99.90
10788;DHT22;5446;50.826;4.380;2023-03-11T05:21:59;0.70;99.90
10788;DHT22;5446;50.826;4.380;2023-03-11T05:24:27;0.70;99.90
10788;DHT22;5446;50.826;4.380;2023-03-11T05:26:53;0.70;99.90
10788;DHT22;5446;50.826;4.380;2023-03-11T05:29:19;0.60;99.90
10788;DHT22;5446;50.826;4.380;2023-03-11T05:31:45;0.60;99.90
10788;DHT22;5446;50.826;4.380;2023-03-11T05:34:11;0.60;99.90
10788;DHT22;5446;50.826;4.380;2023-03-11T05:36:37;0.60;99.90
10788;DHT22;5446;50.826;4.380;2023-03-11T05:39:03;0.70;99.90
10788;DHT22;5446;50.826;4.380;2023-03-11T05:41:29;0.60;99.90
10788;DHT22;5446;50.826;4.380;2023-03-11T05:43:55;0.60;99.90
10788;DHT22;5446;50.826;4.380;2023-03-11T05:46:21;0.60;99.90
10788;DHT22;5446;50.826;4.380;2023-03-11T05:48:47;0.60;99.90
10788;DHT22;5446;50.826;4.380;2023-03-11T05:51:13;0.50;99.90
10788;DHT22;5446;50.826;4.380;2023-03-11T05:53:44;0.50;99.90
10788;DHT22;5446;50.826;4.380;2023-03-11T05:56:14;0.50;99.90
10788;DHT22;5446;50.826;4.380;2023-03-11T05:58:40;0.50;99.90
10788;DHT22;5446;50.826;4.380;2023-03-11T06:01:08;0.50;99.90
10788;DHT22;5446;50.826;4.380;2023-03-11T06:03:35;0.50;99.90
10788;DHT22;5446;50.826;4.380;2023-03-11T06:06:01;0.40;99.90
10788;DHT22;5446;50.826;4.380;2023-03-11T06:08:27;0.40;99.90
10788;DHT22;5446;50.826;4.380;2023-03-11T06:11:07;0.50;99.90
10788;DHT22;5446;50.826;4.380;2023-03-11T06:13:34;0.40;99.90
10788;DHT22;5446;50.826;4.380;2023-03-11T06:16:00;0.40;99.90
10788;DHT22;5446;50.826;4.380;2023-03-11T06:18:26;0.50;99.90
10788;DHT22;5446;50.826;4.380;2023-03-11T06:20:53;0.40;99.90
10788;DHT22;5446;50.826;4.380;2023-03-11T06:23:19;0.50;99.90
10788;DHT22;5446;50.826;4.380;2023-03-11T06:25:57;0.50;99.90
10788;DHT22;5446;50.826;4.380;2023-03-11T06:28:23;0.60;99.90
10788;DHT22;5446;50.826;4.380;2023-03-11T06:30:49;0.60;99.90
10788;DHT22;5446;50.826;4.380;2023-03-11T06:33:15;0.60;99.90
10788;DHT22;5446;50.826;4.380;2023-03-11T06:35:41;0.70;99.90
10788;DHT22;5446;50.826;4.380;2023-03-11T06:38:06;0.70;99.90
10788;DHT22;5446;50.826;4.380;2023-03-11T06:40:32;0.70;99.90
10788;DHT22;5446;50.826;4.380;2023-03-11T06:42:58;0.80;99.90
10788;DHT22;5446;50.826;4.380;2023-03-11T06:45:24;0.80;99.90
10788;DHT22;5446;50.826;4.380;2023-03-11T06:47:50;0.80;99.90
10788;DHT22;5446;50.826;4.380;2023-03-11T06:50:16;0.80;99.90
10788;DHT22;5446;50.826;4.380;2023-03-11T06:52:42;0.90;99.90
10788;DHT22;5446;50.826;4.380;2023-03-11T06:55:08;0.80;99.90
10788;DHT22;5446;50.826;4.380;2023-03-11T06:57:34;0.90;99.90
10788;DHT22;5446;50.826;4.380;2023-03-11T07:00:00;0.90;99.90
10788;DHT22;5446;50.826;4.380;2023-03-11T07:02:26;0.90;99.90
10788;DHT22;5446;50.826;4.380;2023-03-11T07:04:51;1.00;99.90
10788;DHT22;5446;50.826;4.380;2023-03-11T07:07:17;1.00;99.90
10788;DHT22;5446;50.826;4.380;2023-03-11T07:09:44;1.00;99.90
10788;DHT22;5446;50.826;4.380;2023-03-11T07:12:10;1.00;99.90
10788;DHT22;5446;50.826;4.380;2023-03-11T07:14:36;1.10;99.90
10788;DHT22;5446;50.826;4.380;2023-03-11T07:17:01;1.10;99.90
10788;DHT22;5446;50.826;4.380;2023-03-11T07:19:27;1.20;99.90
10788;DHT22;5446;50.826;4.380;2023-03-11T07:21:53;1.20;99.90
10788;DHT22;5446;50.826;4.380;2023-03-11T07:24:19;1.20;99.90
10788;DHT22;5446;50.826;4.380;2023-03-11T07:26:46;1.20;99.90
10788;DHT22;5446;50.826;4.380;2023-03-11T07:29:12;1.30;99.90
10788;DHT22;5446;50.826;4.380;2023-03-11T07:31:37;1.40;99.90
10788;DHT22;5446;50.826;4.380;2023-03-11T07:34:05;1.40;99.90
10788;DHT22;5446;50.826;4.380;2023-03-11T07:36:35;1.50;99.90
10788;DHT22;5446;50.826;4.380;2023-03-11T07:39:03;1.50;99.90
10788;DHT22;5446;50.826;4.380;2023-03-11T07:41:31;1.60;99.90
10788;DHT22;5446;50.826;4.380;2023-03-11T07:43:58;1.60;99.90
10788;DHT22;5446;50.826;4.380;2023-03-11T07:46:26;1.70;99.90
10788;DHT22;5446;50.826;4.380;2023-03-11T07:48:52;1.70;99.90
10788;DHT22;5446;50.826;4.380;2023-03-11T07:51:21;1.90;99.90
10788;DHT22;5446;50.826;4.380;2023-03-11T07:53:48;2.00;99.90
10788;DHT22;5446;50.826;4.380;2023-03-11T07:56:15;2.00;99.90
10788;DHT22;5446;50.826;4.380;2023-03-11T07:58:42;2.10;99.90
10788;DHT22;5446;50.826;4.380;2023-03-11T08:01:10;2.20;99.90
10788;DHT22;5446;50.826;4.380;2023-03-11T08:03:37;2.30;99.90
10788;DHT22;5446;50.826;4.380;2023-03-11T08:06:14;2.30;99.90
10788;DHT22;5446;50.826;4.380;2023-03-11T08:08:41;2.40;99.90
10788;DHT22;5446;50.826;4.380;2023-03-11T08:11:07;2.40;99.90
10788;DHT22;5446;50.826;4.380;2023-03-11T08:13:33;2.50;99.90
10788;DHT22;5446;50.826;4.380;2023-03-11T08:16:02;2.50;99.90
10788;DHT22;5446;50.826;4.380;2023-03-11T08:18:29;2.60;99.90
10788;DHT22;5446;50.826;4.380;2023-03-11T08:20:55;2.70;99.90
10788;DHT22;5446;50.826;4.380;2023-03-11T08:23:21;2.70;99.90
10788;DHT22;5446;50.826;4.380;2023-03-11T08:25:47;2.80;99.90
10788;DHT22;5446;50.826;4.380;2023-03-11T08:28:13;2.90;99.90
10788;DHT22;5446;50.826;4.380;2023-03-11T08:30:39;2.90;99.90
10788;DHT22;5446;50.826;4.380;2023-03-11T08:33:04;3.00;99.90
10788;DHT22;5446;50.826;4.380;2023-03-11T08:35:31;3.20;99.90
10788;DHT22;5446;50.826;4.380;2023-03-11T08:37:56;3.20;99.90
10788;DHT22;5446;50.826;4.380;2023-03-11T08:40:22;3.30;99.90
10788;DHT22;5446;50.826;4.380;2023-03-11T08:42:48;3.30;99.90
10788;DHT22;5446;50.826;4.380;2023-03-11T08:45:14;3.30;99.90
10788;DHT22;5446;50.826;4.380;2023-03-11T08:47:40;3.40;99.90
10788;DHT22;5446;50.826;4.380;2023-03-11T08:50:14;3.50;99.90
10788;DHT22;5446;50.826;4.380;2023-03-11T08:52:40;3.50;99.90
10788;DHT22;5446;50.826;4.380;2023-03-11T08:55:07;3.50;99.90
10788;DHT22;5446;50.826;4.380;2023-03-11T08:57:35;3.60;99.90
10788;DHT22;5446;50.826;4.380;2023-03-11T09:00:03;3.60;99.90
10788;DHT22;5446;50.826;4.380;2023-03-11T09:02:29;3.70;99.90
10788;DHT22;5446;50.826;4.380;2023-03-11T09:04:55;3.70;99.90
10788;DHT22;5446;50.826;4.380;2023-03-11T09:07:21;3.70;99.90
10788;DHT22;5446;50.826;4.380;2023-03-11T09:09:47;3.80;99.90
10788;DHT22;5446;50.826;4.380;2023-03-11T09:12:13;3.80;99.90
10788;DHT22;5446;50.826;4.380;2023-03-11T09:14:40;3.90;99.90
10788;DHT22;5446;50.826;4.380;2023-03-11T09:17:06;3.90;99.90
10788;DHT22;5446;50.826;4.380;2023-03-11T09:19:32;4.00;99.90
10788;DHT22;5446;50.826;4.380;2023-03-11T09:22:02;4.10;99.90
10788;DHT22;5446;50.826;4.380;2023-03-11T09:24:31;4.20;99.90
10788;DHT22;5446;50.826;4.380;2023-03-11T09:26:57;4.30;99.90
10788;DHT22;5446;50.826;4.380;2023-03-11T09:29:23;4.20;99.90
10788;DHT22;5446;50.826;4.380;2023-03-11T09:31:49;4.40;99.90
10788;DHT22;5446;50.826;4.380;2023-03-11T09:34:14;4.40;99.90
10788;DHT22;5446;50.826;4.380;2023-03-11T09:36:41;4.40;99.90
10788;DHT22;5446;50.826;4.380;2023-03-11T09:39:07;4.50;99.90
10788;DHT22;5446;50.826;4.380;2023-03-11T09:47:22;4.90;99.90
10788;DHT22;5446;50.826;4.380;2023-03-11T09:58:01;5.10;99.90
10788;DHT22;5446;50.826;4.380;2023-03-11T10:00:27;5.20;99.90
10788;DHT22;5446;50.826;4.380;2023-03-11T10:02:54;5.30;99.90
10788;DHT22;5446;50.826;4.380;2023-03-11T10:05:23;5.40;99.90
10788;DHT22;5446;50.826;4.380;2023-03-11T10:08:13;5.40;99.90
10788;DHT22;5446;50.826;4.380;2023-03-11T10:10:55;5.40;99.90
10788;DHT22;5446;50.826;4.380;2023-03-11T10:13:59;5.40;99.90
10788;DHT22;5446;50.826;4.380;2023-03-11T10:16:33;5.50;99.90
10788;DHT22;5446;50.826;4.380;2023-03-11T10:24:47;5.60;99.90
10788;DHT22;5446;50.826;4.380;2023-03-11T10:27:20;5.70;99.90
10788;DHT22;5446;50.826;4.380;2023-03-11T10:29:59;5.70;99.90
10788;DHT22;5446;50.826;4.380;2023-03-11T10:37:43;5.80;99.90
10788;DHT22;5446;50.826;4.380;2023-03-11T10:40:18;5.70;99.90
10788;DHT22;5446;50.826;4.380;2023-03-11T10:42:45;5.90;99.90
10788;DHT22;5446;50.826;4.380;2023-03-11T10:45:14;5.80;99.90
10788;DHT22;5446;50.826;4.380;2023-03-11T10:47:40;5.90;99.90
10788;DHT22;5446;50.826;4.380;2023-03-11T10:50:13;5.90;99.90
10788;DHT22;5446;50.826;4.380;2023-03-11T10:53:16;5.90;99.90
10788;DHT22;5446;50.826;4.380;2023-03-11T10:55:52;6.00;99.90
10788;DHT22;5446;50.826;4.380;2023-03-11T10:58:22;6.00;99.90
10788;DHT22;5446;50.826;4.380;2023-03-11T11:01:13;5.90;99.90
10788;DHT22;5446;50.826;4.380;2023-03-11T11:03:42;6.00;99.90
10788;DHT22;5446;50.826;4.380;2023-03-11T11:08:45;5.80;99.90
10788;DHT22;5446;50.826;4.380;2023-03-11T11:11:22;5.80;99.90
10788;DHT22;5446;50.826;4.380;2023-03-11T11:13:58;5.90;99.90
10788;DHT22;5446;50.826;4.380;2023-03-11T11:16:25;6.00;99.90
10788;DHT22;5446;50.826;4.380;2023-03-11T11:19:08;6.00;99.90
10788;DHT22;5446;50.826;4.380;2023-03-11T11:24:13;6.30;99.90
10788;DHT22;5446;50.826;4.380;2023-03-11T11:26:39;6.50;99.90
10788;DHT22;5446;50.826;4.380;2023-03-11T11:31:34;6.60;99.90
10788;DHT22;5446;50.826;4.380;2023-03-11T11:34:00;6.70;99.90
10788;DHT22;5446;50.826;4.380;2023-03-11T11:36:31;6.80;99.90
10788;DHT22;5446;50.826;4.380;2023-03-11T11:39:00;6.60;99.90
10788;DHT22;5446;50.826;4.380;2023-03-11T11:41:31;6.60;99.90
10788;DHT22;5446;50.826;4.380;2023-03-11T11:44:05;6.70;99.90
10788;DHT22;5446;50.826;4.380;2023-03-11T11:46:43;6.50;99.90
10788;DHT22;5446;50.826;4.380;2023-03-11T11:49:20;6.60;99.90
10788;DHT22;5446;50.826;4.380;2023-03-11T11:52:05;6.70;99.90
10788;DHT22;5446;50.826;4.380;2023-03-11T11:57:13;6.60;99.90
10788;DHT22;5446;50.826;4.380;2023-03-11T11:59:39;6.60;99.90
10788;DHT22;5446;50.826;4.380;2023-03-11T12:04:56;6.70;99.90
10788;DHT22;5446;50.826;4.380;2023-03-11T12:10:25;6.80;99.90
10788;DHT22;5446;50.826;4.380;2023-03-11T12:20:54;6.60;99.90
10788;DHT22;5446;50.826;4.380;2023-03-11T12:23:38;6.60;99.90
10788;DHT22;5446;50.826;4.380;2023-03-11T12:26:22;6.70;99.90
10788;DHT22;5446;50.826;4.380;2023-03-11T12:31:17;6.70;99.90
10788;DHT22;5446;50.826;4.380;2023-03-11T12:33:54;6.70;99.90
10788;DHT22;5446;50.826;4.380;2023-03-11T12:36:27;6.60;99.90
10788;DHT22;5446;50.826;4.380;2023-03-11T12:38:53;6.60;99.90
10788;DHT22;5446;50.826;4.380;2023-03-11T12:49:27;7.30;99.90
10788;DHT22;5446;50.826;4.380;2023-03-11T12:52:02;7.20;99.90
10788;DHT22;5446;50.826;4.380;2023-03-11T12:54:36;7.40;99.90
10788;DHT22;5446;50.826;4.380;2023-03-11T13:02:35;7.00;99.90
10788;DHT22;5446;50.826;4.380;2023-03-11T13:23:52;7.00;99.90
10788;DHT22;5446;50.826;4.380;2023-03-11T13:36:09;7.40;99.90
10788;DHT22;5446;50.826;4.380;2023-03-11T13:38:56;7.50;99.90
10788;DHT22;5446;50.826;4.380;2023-03-11T13:41:34;7.40;99.90
10788;DHT22;5446;50.826;4.380;2023-03-11T13:44:28;7.10;99.90
10788;DHT22;5446;50.826;4.380;2023-03-11T13:47:06;7.10;99.90
10788;DHT22;5446;50.826;4.380;2023-03-11T13:52:33;7.20;99.90
10788;DHT22;5446;50.826;4.380;2023-03-11T13:57:58;7.00;99.90
10788;DHT22;5446;50.826;4.380;2023-03-11T14:00:29;6.90;99.90
10788;DHT22;5446;50.826;4.380;2023-03-11T14:02:57;6.90;99.90
10788;DHT22;5446;50.826;4.380;2023-03-11T14:07:52;6.70;99.90
10788;DHT22;5446;50.826;4.380;2023-03-11T14:10:31;6.80;99.90
10788;DHT22;5446;50.826;4.380;2023-03-11T14:15:52;6.70;99.90
10788;DHT22;5446;50.826;4.380;2023-03-11T14:18:35;6.60;99.90
10788;DHT22;5446;50.826;4.380;2023-03-11T14:21:03;6.70;99.90
10788;DHT22;5446;50.826;4.380;2023-03-11T14:23:38;6.70;99.90
10788;DHT22;5446;50.826;4.380;2023-03-11T14:26:08;6.90;99.90
10788;DHT22;5446;50.826;4.380;2023-03-11T14:28:40;7.00;99.90
10788;DHT22;5446;50.826;4.380;2023-03-11T14:31:22;7.00;99.90
10788;DHT22;5446;50.826;4.380;2023-03-11T14:34:03;7.00;99.90
10788;DHT22;5446;50.826;4.380;2023-03-11T14:36:52;7.00;99.90
10788;DHT22;5446;50.826;4.380;2023-03-11T14:39:31;7.20;99.90
10788;DHT22;5446;50.826;4.380;2023-03-11T14:42:23;7.00;99.90
10788;DHT22;5446;50.826;4.380;2023-03-11T14:50:14;6.80;99.90
10788;DHT22;5446;50.826;4.380;2023-03-11T14:52:44;6.80;99.90
10788;DHT22;5446;50.826;4.380;2023-03-11T14:55:20;6.80;99.90
10788;DHT22;5446;50.826;4.380;2023-03-11T14:57:53;6.70;99.90
10788;DHT22;5446;50.826;4.380;2023-03-11T15:00:42;6.80;99.90
10788;DHT22;5446;50.826;4.380;2023-03-11T15:03:33;6.90;99.90
10788;DHT22;5446;50.826;4.380;2023-03-11T15:06:08;7.10;99.90
10788;DHT22;5446;50.826;4.380;2023-03-11T15:08:41;7.00;99.90
10788;DHT22;5446;50.826;4.380;2023-03-11T15:13:39;7.20;99.90
10788;DHT22;5446;50.826;4.380;2023-03-11T15:16:32;7.20;99.90
10788;DHT22;5446;50.826;4.380;2023-03-11T15:21:47;7.20;99.90
10788;DHT22;5446;50.826;4.380;2023-03-11T15:24:23;7.20;99.90
10788;DHT22;5446;50.826;4.380;2023-03-11T15:27:05;7.20;99.90
10788;DHT22;5446;50.826;4.380;2023-03-11T15:29:32;7.30;99.90
10788;DHT22;5446;50.826;4.380;2023-03-11T15:31:59;7.30;99.90
10788;DHT22;5446;50.826;4.380;2023-03-11T15:34:30;7.30;99.90
10788;DHT22;5446;50.826;4.380;2023-03-11T15:37:04;7.10;99.90
10788;DHT22;5446;50.826;4.380;2023-03-11T15:41:59;7.30;99.90
10788;DHT22;5446;50.826;4.380;2023-03-11T15:44:33;7.40;99.90
10788;DHT22;5446;50.826;4.380;2023-03-11T15:47:01;7.20;99.90
10788;DHT22;5446;50.826;4.380;2023-03-11T15:49:28;7.30;99.90
10788;DHT22;5446;50.826;4.380;2023-03-11T15:52:00;7.30;99.90
10788;DHT22;5446;50.826;4.380;2023-03-11T15:54:27;7.30;99.90
10788;DHT22;5446;50.826;4.380;2023-03-11T15:56:55;7.30;99.90
10788;DHT22;5446;50.826;4.380;2023-03-11T15:59:22;7.30;99.90
10788;DHT22;5446;50.826;4.380;2023-03-11T16:01:48;7.40;99.90
10788;DHT22;5446;50.826;4.380;2023-03-11T16:04:16;7.40;99.90
10788;DHT22;5446;50.826;4.380;2023-03-11T16:06:42;7.30;99.90
10788;DHT22;5446;50.826;4.380;2023-03-11T16:09:09;7.20;99.90
10788;DHT22;5446;50.826;4.380;2023-03-11T16:11:35;7.20;99.90
10788;DHT22;5446;50.826;4.380;2023-03-11T16:14:01;7.20;99.90
10788;DHT22;5446;50.826;4.380;2023-03-11T16:16:27;7.20;99.90
10788;DHT22;5446;50.826;4.380;2023-03-11T16:18:53;7.30;99.90
10788;DHT22;5446;50.826;4.380;2023-03-11T16:21:21;7.40;99.90
10788;DHT22;5446;50.826;4.380;2023-03-11T16:23:49;7.40;99.90
10788;DHT22;5446;50.826;4.380;2023-03-11T16:26:15;7.30;99.90
10788;DHT22;5446;50.826;4.380;2023-03-11T16:28:41;7.20;99.90
10788;DHT22;5446;50.826;4.380;2023-03-11T16:31:07;7.30;99.90
10788;DHT22;5446;50.826;4.380;2023-03-11T16:33:34;7.30;99.90
10788;DHT22;5446;50.826;4.380;2023-03-11T16:36:00;7.30;99.90
10788;DHT22;5446;50.826;4.380;2023-03-11T16:38:27;7.40;99.90
10788;DHT22;5446;50.826;4.380;2023-03-11T16:41:00;7.40;99.90
10788;DHT22;5446;50.826;4.380;2023-03-11T16:43:28;7.40;99.90
10788;DHT22;5446;50.826;4.380;2023-03-11T16:45:54;7.40;99.90
10788;DHT22;5446;50.826;4.380;2023-03-11T16:48:23;7.40;99.90
10788;DHT22;5446;50.826;4.380;2023-03-11T16:50:49;7.50;99.90
10788;DHT22;5446;50.826;4.380;2023-03-11T16:53:15;7.70;99.90
10788;DHT22;5446;50.826;4.380;2023-03-11T16:55:44;7.70;99.90
10788;DHT22;5446;50.826;4.380;2023-03-11T16:58:11;7.80;99.90
10788;DHT22;5446;50.826;4.380;2023-03-11T17:00:37;7.50;99.90
10788;DHT22;5446;50.826;4.380;2023-03-11T17:03:02;7.30;99.90
10788;DHT22;5446;50.826;4.380;2023-03-11T17:05:29;7.10;99.90
10788;DHT22;5446;50.826;4.380;2023-03-11T17:07:57;7.00;99.90
10788;DHT22;5446;50.826;4.380;2023-03-11T17:10:34;7.00;99.90
10788;DHT22;5446;50.826;4.380;2023-03-11T17:13:00;6.90;99.90
10788;DHT22;5446;50.826;4.380;2023-03-11T17:15:25;6.90;99.90
10788;DHT22;5446;50.826;4.380;2023-03-11T17:17:51;6.90;99.90
10788;DHT22;5446;50.826;4.380;2023-03-11T17:20:17;6.90;99.90
10788;DHT22;5446;50.826;4.380;2023-03-11T17:22:43;6.90;99.90
10788;DHT22;5446;50.826;4.380;2023-03-11T17:25:09;6.90;99.90
10788;DHT22;5446;50.826;4.380;2023-03-11T17:27:35;6.80;99.90
10788;DHT22;5446;50.826;4.380;2023-03-11T17:30:02;6.80;99.90
10788;DHT22;5446;50.826;4.380;2023-03-11T17:32:28;6.70;99.90
10788;DHT22;5446;50.826;4.380;2023-03-11T17:34:54;6.70;99.90
10788;DHT22;5446;50.826;4.380;2023-03-11T17:37:20;6.60;99.90
10788;DHT22;5446;50.826;4.380;2023-03-11T17:39:47;6.60;99.90
10788;DHT22;5446;50.826;4.380;2023-03-11T17:42:13;6.50;99.90
10788;DHT22;5446;50.826;4.380;2023-03-11T17:44:38;6.40;99.90
10788;DHT22;5446;50.826;4.380;2023-03-11T17:47:04;6.40;99.90
10788;DHT22;5446;50.826;4.380;2023-03-11T17:49:30;6.30;99.90
10788;DHT22;5446;50.826;4.380;2023-03-11T17:51:59;6.30;99.90
10788;DHT22;5446;50.826;4.380;2023-03-11T17:54:26;6.30;99.90
10788;DHT22;5446;50.826;4.380;2023-03-11T17:56:54;6.30;99.90
10788;DHT22;5446;50.826;4.380;2023-03-11T17:59:20;6.20;99.90
10788;DHT22;5446;50.826;4.380;2023-03-11T18:01:46;6.10;99.90
10788;DHT22;5446;50.826;4.380;2023-03-11T18:04:11;6.10;99.90
10788;DHT22;5446;50.826;4.380;2023-03-11T18:06:37;6.00;99.90
10788;DHT22;5446;50.826;4.380;2023-03-11T18:09:03;6.00;99.90
10788;DHT22;5446;50.826;4.380;2023-03-11T18:11:30;6.00;99.90
10788;DHT22;5446;50.826;4.380;2023-03-11T18:13:55;6.00;99.90